Time;durP1;ratioP1;P1;durP2;ratioP2;P2;SDS_P1;SDS_P2;PMS_P1;PMS_P2;Temp;Humidity;BMP_temperature;BMP_pressure;BME280_temperature;BME280_humidity;BME280_pressure;Samples;Min_cycle;Max_cycle;Signal;HPM_P1;HPM_P2
2022/03/06 00:01:24;;;;;;;;;;;1.20;99.90;;;;;;5119588;28;20211;-71
2022/03/06 00:03:51;;;;;;;;;;;1.30;99.90;;;;;;5127435;28;19927;-71
2022/03/06 00:06:17;;;;;;;;;;;1.20;99.90;;;;;;5116011;28;19920;-71
2022/03/06 00:08:44;;;;;;;;;;;1.20;99.90;;;;;;5116212;28;19973;-71
2022/03/06 00:11:11;;;;;;;;;;;1.20;99.90;;;;;;5109894;28;19920;-71
2022/03/06 00:13:37;;;;;;;;;;;1.20;99.90;;;;;;5107953;28;20279;-72
2022/03/06 00:16:06;;;;;;;;;;;1.10;99.90;;;;;;5106276;28;19927;-71
2022/03/06 00:18:35;;;;;;;;;;;1.10;99.90;;;;;;5118245;28;19920;-71
2022/03/06 00:21:03;;;;;;;;;;;1.10;99.90;;;;;;5126027;28;19920;-72
2022/03/06 00:23:29;;;;;;;;;;;1.10;99.90;;;;;;5126375;28;19920;-71
2022/03/06 00:25:56;;;;;;;;;;;1.10;99.90;;;;;;5126298;28;20216;-71
2022/03/06 00:28:22;;;;;;;;;;;1.20;99.90;;;;;;5108055;28;20092;-71
2022/03/06 00:30:50;;;;;;;;;;;1.10;99.90;;;;;;5127023;28;19927;-71
2022/03/06 00:33:17;;;;;;;;;;;1.10;99.90;;;;;;5126295;28;19935;-71
2022/03/06 00:35:44;;;;;;;;;;;1.10;99.90;;;;;;5126223;28;19926;-71
2022/03/06 00:38:11;;;;;;;;;;;1.20;99.90;;;;;;5126114;28;19920;-71
2022/03/06 00:40:37;;;;;;;;;;;1.10;99.90;;;;;;5126519;28;20088;-71
2022/03/06 00:43:04;;;;;;;;;;;1.10;99.90;;;;;;5110976;28;19927;-70
2022/03/06 00:45:31;;;;;;;;;;;1.00;99.90;;;;;;5116608;28;19920;-71
2022/03/06 00:47:57;;;;;;;;;;;1.10;99.90;;;;;;5114105;28;19920;-70
2022/03/06 00:50:26;;;;;;;;;;;1.10;99.90;;;;;;5112703;28;19924;-74
2022/03/06 00:52:53;;;;;;;;;;;1.10;99.90;;;;;;5118607;28;19920;-71
2022/03/06 00:55:20;;;;;;;;;;;1.10;99.90;;;;;;5105342;28;19962;-70
2022/03/06 00:57:46;;;;;;;;;;;1.10;99.90;;;;;;5117346;28;19920;-71
2022/03/06 01:00:13;;;;;;;;;;;1.10;99.90;;;;;;5125684;28;19927;-70
2022/03/06 01:02:40;;;;;;;;;;;1.10;99.90;;;;;;5126485;28;19919;-71
2022/03/06 01:05:07;;;;;;;;;;;1.10;99.90;;;;;;5121796;28;19926;-72
2022/03/06 01:07:35;;;;;;;;;;;1.10;99.90;;;;;;5119727;28;19927;-71
2022/03/06 01:10:01;;;;;;;;;;;1.10;99.90;;;;;;5120053;28;19920;-71
2022/03/06 01:12:28;;;;;;;;;;;1.10;99.90;;;;;;5126425;28;19943;-71
2022/03/06 01:14:54;;;;;;;;;;;1.10;99.90;;;;;;5112683;28;19926;-71
2022/03/06 01:17:21;;;;;;;;;;;1.00;99.90;;;;;;5105033;28;19943;-71
2022/03/06 01:19:49;;;;;;;;;;;1.00;99.90;;;;;;5110012;28;19927;-71
2022/03/06 01:22:16;;;;;;;;;;;0.90;99.90;;;;;;5108406;28;19959;-71
2022/03/06 01:24:44;;;;;;;;;;;0.90;99.90;;;;;;5105944;28;19924;-70
2022/03/06 01:27:10;;;;;;;;;;;0.90;99.90;;;;;;5105652;28;19920;-70
2022/03/06 01:29:37;;;;;;;;;;;0.90;99.90;;;;;;5112518;28;19920;-70
2022/03/06 01:32:04;;;;;;;;;;;0.90;99.90;;;;;;5126164;28;20116;-71
2022/03/06 01:34:31;;;;;;;;;;;0.90;99.90;;;;;;5126147;28;20257;-70
2022/03/06 01:36:57;;;;;;;;;;;0.90;99.90;;;;;;5125653;28;20108;-70
2022/03/06 01:39:24;;;;;;;;;;;0.80;99.90;;;;;;5112631;28;19920;-71
2022/03/06 01:41:52;;;;;;;;;;;0.70;99.90;;;;;;5105875;28;19920;-70
2022/03/06 01:44:18;;;;;;;;;;;0.70;99.90;;;;;;5120172;28;20103;-71
2022/03/06 01:46:45;;;;;;;;;;;0.70;99.90;;;;;;5125357;28;20204;-70
2022/03/06 01:49:12;;;;;;;;;;;0.70;99.90;;;;;;5126069;28;19941;-71
2022/03/06 01:52:09;;;;;;;;;;;0.70;99.90;;;;;;5124545;28;19920;-71
2022/03/06 01:54:36;;;;;;;;;;;0.70;99.90;;;;;;5125981;28;19985;-71
2022/03/06 01:57:04;;;;;;;;;;;0.60;99.90;;;;;;5125252;28;19927;-71
2022/03/06 01:59:31;;;;;;;;;;;0.60;99.90;;;;;;5125825;28;19919;-71
2022/03/06 02:01:58;;;;;;;;;;;0.60;99.90;;;;;;5125881;28;19926;-71
2022/03/06 02:04:24;;;;;;;;;;;0.60;99.90;;;;;;5112066;28;19920;-70
2022/03/06 02:06:51;;;;;;;;;;;0.60;99.90;;;;;;5104484;28;19920;-71
2022/03/06 02:09:17;;;;;;;;;;;0.60;99.90;;;;;;5114272;28;20229;-71
2022/03/06 02:12:18;;;;;;;;;;;0.60;99.90;;;;;;5108543;28;19924;-70
2022/03/06 02:14:32;;;;;;;;;;;0.60;99.90;;;;;;5104811;28;19920;-71
2022/03/06 02:16:58;;;;;;;;;;;0.60;99.90;;;;;;5104408;28;19920;-70
2022/03/06 02:19:25;;;;;;;;;;;0.60;99.90;;;;;;5119853;28;19920;-71
2022/03/06 02:21:53;;;;;;;;;;;0.50;99.90;;;;;;5125303;28;19920;-70
2022/03/06 02:24:19;;;;;;;;;;;0.50;99.90;;;;;;5125156;28;19926;-70
2022/03/06 02:26:46;;;;;;;;;;;0.50;99.90;;;;;;5124388;28;19920;-71
2022/03/06 02:29:12;;;;;;;;;;;0.50;99.90;;;;;;5106818;28;19920;-71
2022/03/06 02:31:39;;;;;;;;;;;0.50;99.90;;;;;;5105281;28;20234;-70
2022/03/06 02:34:06;;;;;;;;;;;0.50;99.90;;;;;;5116970;28;19927;-71
2022/03/06 02:36:33;;;;;;;;;;;0.50;99.90;;;;;;5124329;28;19919;-70
2022/03/06 02:39:01;;;;;;;;;;;0.50;99.90;;;;;;5118338;28;19920;-71
2022/03/06 02:41:34;;;;;;;;;;;0.40;99.90;;;;;;5103862;28;19927;-71
2022/03/06 02:44:00;;;;;;;;;;;0.40;99.90;;;;;;5106039;28;19924;-71
2022/03/06 02:46:27;;;;;;;;;;;0.40;99.90;;;;;;5123369;28;20221;-70
2022/03/06 02:48:53;;;;;;;;;;;0.40;99.90;;;;;;5113575;28;20212;-72
2022/03/06 02:51:21;;;;;;;;;;;0.50;99.90;;;;;;5102852;28;20101;-71
2022/03/06 02:53:48;;;;;;;;;;;0.50;99.90;;;;;;5105419;28;19920;-74
2022/03/06 02:56:15;;;;;;;;;;;0.50;99.90;;;;;;5122699;28;19920;-70
2022/03/06 02:58:42;;;;;;;;;;;0.40;99.90;;;;;;5110287;28;19943;-71
2022/03/06 03:01:09;;;;;;;;;;;0.40;99.90;;;;;;5103837;28;20145;-71
2022/03/06 03:03:38;;;;;;;;;;;0.40;99.90;;;;;;5120128;28;19920;-70
2022/03/06 03:06:07;;;;;;;;;;;0.40;99.90;;;;;;5123424;28;19920;-70
2022/03/06 03:08:33;;;;;;;;;;;0.40;99.90;;;;;;5120051;28;19964;-71
2022/03/06 03:11:00;;;;;;;;;;;0.40;99.90;;;;;;5106028;28;19920;-70
2022/03/06 03:13:28;;;;;;;;;;;0.40;99.90;;;;;;5123552;28;19923;-70
2022/03/06 03:15:54;;;;;;;;;;;0.50;99.90;;;;;;5114075;28;19920;-71
2022/03/06 03:18:21;;;;;;;;;;;0.40;99.90;;;;;;5103152;28;19920;-71
2022/03/06 03:20:50;;;;;;;;;;;0.40;99.90;;;;;;5111065;28;20178;-70
2022/03/06 03:23:16;;;;;;;;;;;0.40;99.90;;;;;;5105052;28;19920;-71
2022/03/06 03:25:43;;;;;;;;;;;0.40;99.90;;;;;;5123370;28;19923;-70
2022/03/06 03:28:10;;;;;;;;;;;0.30;99.90;;;;;;5119558;28;19927;-70
2022/03/06 03:30:37;;;;;;;;;;;0.30;99.90;;;;;;5112157;28;20000;-70
2022/03/06 03:33:04;;;;;;;;;;;0.30;99.90;;;;;;5104446;28;19928;-70
2022/03/06 03:35:31;;;;;;;;;;;0.30;99.90;;;;;;5107730;28;19927;-71
2022/03/06 03:37:57;;;;;;;;;;;0.30;99.90;;;;;;5123728;28;19934;-71
2022/03/06 03:40:24;;;;;;;;;;;0.30;99.90;;;;;;5123767;28;19920;-71
2022/03/06 03:42:50;;;;;;;;;;;0.30;99.90;;;;;;5122022;28;19927;-70
2022/03/06 03:45:17;;;;;;;;;;;0.30;99.90;;;;;;5123259;28;19920;-73
2022/03/06 03:47:45;;;;;;;;;;;0.30;99.90;;;;;;5122843;28;20085;-71
2022/03/06 03:50:12;;;;;;;;;;;0.30;99.90;;;;;;5113721;28;19927;-71
2022/03/06 03:52:38;;;;;;;;;;;0.40;99.90;;;;;;5120898;28;19919;-70
2022/03/06 03:55:06;;;;;;;;;;;0.40;99.90;;;;;;5119702;28;20169;-70
2022/03/06 03:57:32;;;;;;;;;;;0.30;99.90;;;;;;5122766;28;20231;-70
2022/03/06 03:59:59;;;;;;;;;;;0.30;99.90;;;;;;5120827;28;20119;-70
2022/03/06 04:02:26;;;;;;;;;;;0.30;99.90;;;;;;5112090;28;19920;-72
2022/03/06 04:04:54;;;;;;;;;;;0.20;99.90;;;;;;5117862;28;19920;-70
2022/03/06 04:07:21;;;;;;;;;;;0.20;99.90;;;;;;5119796;28;19928;-70
2022/03/06 04:09:47;;;;;;;;;;;0.20;99.90;;;;;;5105381;28;20204;-70
2022/03/06 04:12:14;;;;;;;;;;;0.20;99.90;;;;;;5121807;28;19920;-71
2022/03/06 04:14:40;;;;;;;;;;;0.30;99.90;;;;;;5120413;28;19920;-71
2022/03/06 04:17:07;;;;;;;;;;;0.40;99.90;;;;;;5122616;28;19942;-71
2022/03/06 04:19:34;;;;;;;;;;;0.30;99.90;;;;;;5106949;28;20216;-70
2022/03/06 04:22:02;;;;;;;;;;;0.30;99.90;;;;;;5108117;28;20092;-70
2022/03/06 04:24:28;;;;;;;;;;;0.20;99.90;;;;;;5117398;28;19927;-70
2022/03/06 04:26:55;;;;;;;;;;;0.20;99.90;;;;;;5116499;28;19932;-70
2022/03/06 04:29:21;;;;;;;;;;;0.20;99.90;;;;;;5104451;28;20150;-71
2022/03/06 04:31:48;;;;;;;;;;;0.20;99.90;;;;;;5103028;28;19920;-71
2022/03/06 04:34:14;;;;;;;;;;;0.20;99.90;;;;;;5115651;28;19934;-71
2022/03/06 04:36:41;;;;;;;;;;;0.20;99.90;;;;;;5126044;28;19920;-71
2022/03/06 04:39:09;;;;;;;;;;;0.30;99.90;;;;;;5126472;28;20211;-70
2022/03/06 04:41:36;;;;;;;;;;;0.30;99.90;;;;;;5126851;28;19920;-70
2022/03/06 04:44:03;;;;;;;;;;;0.30;99.90;;;;;;5123194;28;19919;-71
2022/03/06 04:46:29;;;;;;;;;;;0.30;99.90;;;;;;5125879;28;20130;-71
2022/03/06 04:48:56;;;;;;;;;;;0.30;99.90;;;;;;5125939;28;19920;-70
2022/03/06 04:51:22;;;;;;;;;;;0.30;99.90;;;;;;5113251;28;19920;-70
2022/03/06 04:53:49;;;;;;;;;;;0.30;99.90;;;;;;5122705;28;19923;-72
2022/03/06 04:56:17;;;;;;;;;;;0.20;99.90;;;;;;5106308;28;19919;-71
2022/03/06 04:58:43;;;;;;;;;;;0.20;99.90;;;;;;5114991;28;19927;-71
2022/03/06 05:01:10;;;;;;;;;;;0.20;99.90;;;;;;5126435;28;19919;-70
2022/03/06 05:03:36;;;;;;;;;;;0.20;99.90;;;;;;5120712;28;19924;-70
2022/03/06 05:06:03;;;;;;;;;;;0.20;99.90;;;;;;5116700;28;20120;-70
2022/03/06 05:08:30;;;;;;;;;;;0.20;99.90;;;;;;5120273;28;20225;-70
2022/03/06 05:10:56;;;;;;;;;;;0.20;99.90;;;;;;5106666;28;19982;-70
2022/03/06 05:13:25;;;;;;;;;;;0.20;99.90;;;;;;5110456;28;19926;-70
2022/03/06 05:15:51;;;;;;;;;;;0.20;99.90;;;;;;5126158;28;19923;-70
2022/03/06 05:18:18;;;;;;;;;;;0.10;99.90;;;;;;5118592;28;19920;-71
2022/03/06 05:20:45;;;;;;;;;;;0.10;99.90;;;;;;5109937;28;19964;-70
2022/03/06 05:23:11;;;;;;;;;;;0.20;99.90;;;;;;5126005;28;19920;-70
2022/03/06 05:25:38;;;;;;;;;;;0.10;99.90;;;;;;5124739;28;19927;-70
2022/03/06 05:28:05;;;;;;;;;;;0.10;99.90;;;;;;5125006;28;19926;-71
2022/03/06 05:30:33;;;;;;;;;;;0.10;99.90;;;;;;5125550;28;19934;-70
2022/03/06 05:32:59;;;;;;;;;;;0.10;99.90;;;;;;5122390;28;20212;-70
2022/03/06 05:35:26;;;;;;;;;;;0.20;99.90;;;;;;5117341;28;19943;-72
2022/03/06 05:37:52;;;;;;;;;;;0.20;99.90;;;;;;5121683;28;19920;-70
2022/03/06 05:40:19;;;;;;;;;;;0.20;99.90;;;;;;5125352;28;19924;-70
2022/03/06 05:42:46;;;;;;;;;;;0.20;99.90;;;;;;5116113;28;19920;-70
2022/03/06 05:45:12;;;;;;;;;;;0.20;99.90;;;;;;5124388;28;20207;-71
2022/03/06 05:47:40;;;;;;;;;;;0.20;99.90;;;;;;5124832;28;19926;-71
2022/03/06 05:50:08;;;;;;;;;;;0.20;99.90;;;;;;5109119;28;19926;-70
2022/03/06 05:52:34;;;;;;;;;;;0.10;99.90;;;;;;5125407;28;19920;-70
2022/03/06 05:55:01;;;;;;;;;;;0.10;99.90;;;;;;5111233;28;19920;-73
2022/03/06 05:57:28;;;;;;;;;;;0.10;99.90;;;;;;5118655;28;19927;-70
2022/03/06 05:59:54;;;;;;;;;;;0.10;99.90;;;;;;5108687;28;19924;-70
2022/03/06 06:02:21;;;;;;;;;;;0.10;99.90;;;;;;5105581;28;19924;-70
2022/03/06 06:04:49;;;;;;;;;;;0.00;99.90;;;;;;5104954;28;19926;-71
2022/03/06 06:07:16;;;;;;;;;;;0.10;99.90;;;;;;5104618;28;19927;-70
2022/03/06 06:09:43;;;;;;;;;;;0.00;99.90;;;;;;5107969;28;20208;-70
2022/03/06 06:12:10;;;;;;;;;;;0.10;99.90;;;;;;5115111;28;19934;-70
2022/03/06 06:14:36;;;;;;;;;;;0.10;99.90;;;;;;5113856;28;20224;-70
2022/03/06 06:17:03;;;;;;;;;;;0.10;99.90;;;;;;5124243;28;19927;-71
2022/03/06 06:19:29;;;;;;;;;;;0.10;99.90;;;;;;5124127;28;20207;-70
2022/03/06 06:21:57;;;;;;;;;;;0.10;99.90;;;;;;5119841;28;19920;-70
2022/03/06 06:24:24;;;;;;;;;;;0.10;99.90;;;;;;5104816;28;19958;-70
2022/03/06 06:26:53;;;;;;;;;;;0.10;99.90;;;;;;5104460;28;19919;-71
2022/03/06 06:29:20;;;;;;;;;;;0.10;99.90;;;;;;5104102;28;19924;-71
2022/03/06 06:31:46;;;;;;;;;;;0.10;99.90;;;;;;5104413;28;19927;-70
2022/03/06 06:34:13;;;;;;;;;;;0.10;99.90;;;;;;5114316;28;19920;-70
2022/03/06 06:36:40;;;;;;;;;;;0.20;99.90;;;;;;5124084;28;19920;-71
2022/03/06 06:39:09;;;;;;;;;;;0.20;99.90;;;;;;5111762;28;19942;-71
2022/03/06 06:41:36;;;;;;;;;;;0.20;99.90;;;;;;5124563;28;19927;-71
2022/03/06 06:44:03;;;;;;;;;;;0.10;99.90;;;;;;5121416;28;19920;-70
2022/03/06 06:46:29;;;;;;;;;;;0.10;99.90;;;;;;5122780;28;19919;-70
2022/03/06 06:48:56;;;;;;;;;;;0.10;99.90;;;;;;5123558;28;19919;-71
2022/03/06 06:51:22;;;;;;;;;;;0.10;99.90;;;;;;5104277;28;20240;-71
2022/03/06 06:53:49;;;;;;;;;;;0.10;99.90;;;;;;5104421;28;19920;-70
2022/03/06 06:56:17;;;;;;;;;;;0.20;99.90;;;;;;5103723;28;20212;-70
2022/03/06 06:58:43;;;;;;;;;;;0.20;99.90;;;;;;5103334;28;19920;-70
2022/03/06 07:01:10;;;;;;;;;;;0.20;99.90;;;;;;5106382;28;19920;-70
2022/03/06 07:03:37;;;;;;;;;;;0.20;99.90;;;;;;5104455;28;19927;-70
2022/03/06 07:06:03;;;;;;;;;;;0.20;99.90;;;;;;5103516;28;19920;-70
2022/03/06 07:08:30;;;;;;;;;;;0.20;99.90;;;;;;5107840;28;19920;-70
2022/03/06 07:10:57;;;;;;;;;;;0.20;99.90;;;;;;5107107;28;19983;-71
2022/03/06 07:13:24;;;;;;;;;;;0.20;99.90;;;;;;5109220;28;19920;-71
2022/03/06 07:15:51;;;;;;;;;;;0.20;99.90;;;;;;5113638;28;19919;-70
2022/03/06 07:18:18;;;;;;;;;;;0.20;99.90;;;;;;5119345;28;19919;-71
2022/03/06 07:20:44;;;;;;;;;;;0.20;99.90;;;;;;5123777;28;19924;-70
2022/03/06 07:23:11;;;;;;;;;;;0.20;99.90;;;;;;5116351;28;19920;-71
2022/03/06 07:25:38;;;;;;;;;;;0.20;99.90;;;;;;5102960;28;20154;-70
2022/03/06 07:28:05;;;;;;;;;;;0.30;99.90;;;;;;5106860;28;19955;-70
2022/03/06 07:30:32;;;;;;;;;;;0.30;99.90;;;;;;5110693;28;19920;-71
2022/03/06 07:33:00;;;;;;;;;;;0.30;99.90;;;;;;5103538;28;20123;-71
2022/03/06 07:35:27;;;;;;;;;;;0.30;99.90;;;;;;5103229;28;20261;-70
2022/03/06 07:37:54;;;;;;;;;;;0.30;99.90;;;;;;5107564;28;19928;-70
2022/03/06 07:40:21;;;;;;;;;;;0.30;99.90;;;;;;5124180;28;19920;-70
2022/03/06 07:42:48;;;;;;;;;;;0.30;99.90;;;;;;5124447;28;19919;-70
2022/03/06 07:45:15;;;;;;;;;;;0.30;99.90;;;;;;5124102;28;19926;-70
2022/03/06 07:47:43;;;;;;;;;;;0.40;99.90;;;;;;5124029;28;19919;-70
2022/03/06 07:50:11;;;;;;;;;;;0.30;99.90;;;;;;5124350;28;19919;-70
2022/03/06 07:52:38;;;;;;;;;;;0.30;99.90;;;;;;5113616;28;20204;-70
2022/03/06 07:55:04;;;;;;;;;;;0.20;99.90;;;;;;5104236;28;19989;-70
2022/03/06 07:57:31;;;;;;;;;;;0.40;99.90;;;;;;5123817;28;19920;-70
2022/03/06 07:59:58;;;;;;;;;;;0.40;99.90;;;;;;5124720;28;19923;-70
2022/03/06 08:02:24;;;;;;;;;;;0.50;99.90;;;;;;5120993;28;19934;-71
2022/03/06 08:04:52;;;;;;;;;;;0.50;99.90;;;;;;5103879;28;19955;-70
2022/03/06 08:07:19;;;;;;;;;;;0.50;99.90;;;;;;5103080;28;19924;-70
2022/03/06 08:09:45;;;;;;;;;;;0.50;99.90;;;;;;5106054;28;19920;-70
2022/03/06 08:12:12;;;;;;;;;;;0.60;99.90;;;;;;5124437;28;20209;-71
2022/03/06 08:14:38;;;;;;;;;;;0.70;99.90;;;;;;5120669;28;19926;-71
2022/03/06 08:17:05;;;;;;;;;;;0.70;99.90;;;;;;5114253;28;19927;-71
2022/03/06 08:19:40;;;;;;;;;;;0.80;99.90;;;;;;5105018;28;19920;-70
2022/03/06 08:22:07;;;;;;;;;;;0.80;99.90;;;;;;5107331;28;20115;-70
2022/03/06 08:24:34;;;;;;;;;;;0.90;99.90;;;;;;5107671;28;19920;-70
2022/03/06 08:27:01;;;;;;;;;;;0.90;99.90;;;;;;5112805;28;19926;-69
2022/03/06 08:29:27;;;;;;;;;;;0.90;99.90;;;;;;5116346;28;19920;-70
2022/03/06 08:31:54;;;;;;;;;;;1.00;99.90;;;;;;5111074;28;20003;-70
2022/03/06 08:34:20;;;;;;;;;;;1.00;99.90;;;;;;5115365;28;19920;-70
2022/03/06 08:36:47;;;;;;;;;;;1.10;99.90;;;;;;5121015;28;19935;-71
2022/03/06 08:39:15;;;;;;;;;;;1.10;99.90;;;;;;5115588;28;19990;-70
2022/03/06 08:41:42;;;;;;;;;;;1.10;99.90;;;;;;5114978;28;19926;-70
2022/03/06 08:44:09;;;;;;;;;;;1.10;99.90;;;;;;5112592;28;19958;-70
2022/03/06 08:46:35;;;;;;;;;;;1.20;99.90;;;;;;5106309;28;19987;-70
2022/03/06 08:49:02;;;;;;;;;;;1.30;99.90;;;;;;5107059;28;19920;-70
2022/03/06 08:51:29;;;;;;;;;;;1.40;99.90;;;;;;5107157;28;19920;-70
2022/03/06 08:53:55;;;;;;;;;;;1.50;99.90;;;;;;5116597;28;19927;-70
2022/03/06 08:56:23;;;;;;;;;;;1.50;99.90;;;;;;5121210;28;19927;-71
2022/03/06 08:58:50;;;;;;;;;;;1.60;99.90;;;;;;5114858;28;19920;-70
2022/03/06 09:01:16;;;;;;;;;;;1.70;99.90;;;;;;5106800;28;19920;-71
2022/03/06 09:03:43;;;;;;;;;;;1.70;99.90;;;;;;5106723;28;19923;-70
2022/03/06 09:06:10;;;;;;;;;;;1.70;99.90;;;;;;5105666;28;19987;-71
2022/03/06 09:08:36;;;;;;;;;;;1.80;99.90;;;;;;5103814;28;20400;-70
2022/03/06 09:11:04;;;;;;;;;;;1.90;99.90;;;;;;5121047;28;19920;-71
2022/03/06 09:13:32;;;;;;;;;;;1.90;99.90;;;;;;5126583;28;19927;-70
2022/03/06 09:15:59;;;;;;;;;;;2.00;99.90;;;;;;5121814;28;19920;-71
2022/03/06 09:18:25;;;;;;;;;;;2.10;99.90;;;;;;5120335;28;19926;-70
2022/03/06 09:20:52;;;;;;;;;;;2.20;99.90;;;;;;5115776;28;19960;-70
2022/03/06 09:23:18;;;;;;;;;;;2.30;99.90;;;;;;5111163;28;19920;-70
2022/03/06 09:25:45;;;;;;;;;;;2.40;99.90;;;;;;5112831;28;19920;-70
2022/03/06 09:28:12;;;;;;;;;;;2.50;99.90;;;;;;5126241;28;19920;-71
2022/03/06 09:30:41;;;;;;;;;;;2.50;99.90;;;;;;5113688;28;19926;-70
2022/03/06 09:33:07;;;;;;;;;;;2.60;99.90;;;;;;5113164;28;19983;-70
2022/03/06 09:35:34;;;;;;;;;;;2.60;99.90;;;;;;5104958;28;19979;-71
2022/03/06 09:38:01;;;;;;;;;;;2.60;99.90;;;;;;5105733;28;19926;-71
2022/03/06 09:40:28;;;;;;;;;;;2.70;99.90;;;;;;5116246;28;20238;-70
2022/03/06 09:42:54;;;;;;;;;;;2.70;99.90;;;;;;5125717;28;19919;-71
2022/03/06 09:45:23;;;;;;;;;;;2.70;99.90;;;;;;5125148;28;19931;-70
2022/03/06 09:47:52;;;;;;;;;;;2.70;99.90;;;;;;5116723;28;19928;-70
2022/03/06 09:50:19;;;;;;;;;;;2.70;99.90;;;;;;5133875;27;19926;-70
2022/03/06 09:52:45;;;;;;;;;;;2.60;99.90;;;;;;5150036;27;19919;-70
2022/03/06 09:55:12;;;;;;;;;;;2.60;99.90;;;;;;5163138;27;20237;-70
2022/03/06 09:57:39;;;;;;;;;;;2.60;99.90;;;;;;5151991;27;19923;-70
2022/03/06 10:00:06;;;;;;;;;;;2.60;99.90;;;;;;5167072;27;19925;-71
2022/03/06 10:02:50;;;;;;;;;;;2.60;99.90;;;;;;5162931;27;19919;-70
2022/03/06 10:05:26;;;;;;;;;;;2.50;99.90;;;;;;5166508;27;19925;-69
2022/03/06 10:07:53;;;;;;;;;;;2.40;99.90;;;;;;5166335;27;19919;-70
2022/03/06 10:10:35;;;;;;;;;;;2.40;99.90;;;;;;5162083;27;19956;-71
2022/03/06 10:13:06;;;;;;;;;;;2.40;99.90;;;;;;5164016;27;19919;-71
2022/03/06 10:15:33;;;;;;;;;;;2.40;99.90;;;;;;5150490;27;20230;-71
2022/03/06 10:18:00;;;;;;;;;;;2.40;99.90;;;;;;5149514;27;19954;-70
2022/03/06 10:20:30;;;;;;;;;;;2.40;99.90;;;;;;5166043;27;19926;-70
2022/03/06 10:22:58;;;;;;;;;;;2.40;99.90;;;;;;5165463;27;19919;-70
2022/03/06 10:25:24;;;;;;;;;;;2.40;99.90;;;;;;5152674;27;19920;-71
2022/03/06 10:27:53;;;;;;;;;;;2.30;99.90;;;;;;5147640;27;19926;-70
2022/03/06 10:30:24;;;;;;;;;;;2.40;99.90;;;;;;5160775;27;20163;-71
2022/03/06 10:32:50;;;;;;;;;;;2.40;99.90;;;;;;5156878;27;19983;-70
2022/03/06 10:35:17;;;;;;;;;;;2.40;99.90;;;;;;5150107;27;19919;-71
2022/03/06 10:37:45;;;;;;;;;;;2.40;99.90;;;;;;5148165;27;19920;-70
2022/03/06 10:40:14;;;;;;;;;;;2.40;99.90;;;;;;5145701;27;19923;-70
2022/03/06 10:42:41;;;;;;;;;;;2.50;99.90;;;;;;5145750;27;20153;-70
2022/03/06 10:45:08;;;;;;;;;;;2.50;99.90;;;;;;5145499;27;19919;-70
2022/03/06 10:47:46;;;;;;;;;;;2.50;99.90;;;;;;5151453;27;19983;-70
2022/03/06 10:50:25;;;;;;;;;;;2.60;99.90;;;;;;5164019;27;19919;-70
2022/03/06 10:52:54;;;;;;;;;;;2.60;99.90;;;;;;5149614;27;19942;-70
2022/03/06 10:55:34;;;;;;;;;;;2.70;99.90;;;;;;5144838;27;19927;-70
2022/03/06 10:58:00;;;;;;;;;;;2.80;99.90;;;;;;5149982;27;19926;-70
2022/03/06 11:00:28;;;;;;;;;;;3.00;99.90;;;;;;5155975;27;19930;-71
2022/03/06 11:02:57;;;;;;;;;;;3.10;99.90;;;;;;5161805;27;20198;-70
2022/03/06 11:05:24;;;;;;;;;;;3.30;99.90;;;;;;5163819;27;20284;-71
2022/03/06 11:07:51;;;;;;;;;;;3.30;99.90;;;;;;5162693;27;19919;-72
2022/03/06 11:10:20;;;;;;;;;;;3.30;99.90;;;;;;5164066;27;20194;-71
2022/03/06 11:12:47;;;;;;;;;;;3.40;99.90;;;;;;5164942;27;20060;-70
2022/03/06 11:15:13;;;;;;;;;;;3.50;99.90;;;;;;5164964;27;20021;-71
2022/03/06 11:17:41;;;;;;;;;;;3.60;99.90;;;;;;5152521;27;19919;-71
2022/03/06 11:20:08;;;;;;;;;;;3.70;99.90;;;;;;5155879;27;19927;-71
2022/03/06 11:22:37;;;;;;;;;;;3.80;99.90;;;;;;5165592;27;19918;-70
2022/03/06 11:25:06;;;;;;;;;;;3.80;99.90;;;;;;5165475;27;19925;-71
2022/03/06 11:27:43;;;;;;;;;;;4.00;99.90;;;;;;5157546;27;19919;-71
2022/03/06 11:30:18;;;;;;;;;;;4.00;99.90;;;;;;5153277;27;19919;-71
2022/03/06 11:32:46;;;;;;;;;;;4.00;99.90;;;;;;5145621;27;19919;-71
2022/03/06 11:35:15;;;;;;;;;;;4.00;99.90;;;;;;5144198;27;19920;-74
2022/03/06 11:37:46;;;;;;;;;;;4.00;99.90;;;;;;5143943;28;19982;-70
2022/03/06 11:40:27;;;;;;;;;;;4.00;99.90;;;;;;5144370;28;20103;-70
2022/03/06 11:42:57;;;;;;;;;;;3.90;99.90;;;;;;5153948;27;19927;-70
2022/03/06 11:45:42;;;;;;;;;;;3.90;99.90;;;;;;5164384;27;19927;-70
2022/03/06 11:48:09;;;;;;;;;;;3.90;99.90;;;;;;5168532;27;19919;-70
2022/03/06 11:50:35;;;;;;;;;;;3.90;99.90;;;;;;5168571;27;19925;-70
2022/03/06 11:53:19;;;;;;;;;;;3.90;99.90;;;;;;5168014;27;19926;-70
2022/03/06 11:55:45;;;;;;;;;;;3.80;99.90;;;;;;5165658;27;19926;-70
2022/03/06 11:58:13;;;;;;;;;;;3.80;99.90;;;;;;5168385;27;19926;-70
2022/03/06 12:00:40;;;;;;;;;;;3.80;99.90;;;;;;5167588;27;19934;-70
2022/03/06 12:03:07;;;;;;;;;;;3.80;99.90;;;;;;5167753;27;19926;-70
2022/03/06 12:05:46;;;;;;;;;;;3.90;99.90;;;;;;5168455;27;20226;-69
2022/03/06 12:08:13;;;;;;;;;;;3.90;99.90;;;;;;5166373;27;19942;-70
2022/03/06 12:10:40;;;;;;;;;;;3.90;99.90;;;;;;5155796;27;20158;-70
2022/03/06 12:13:16;;;;;;;;;;;3.90;99.90;;;;;;5157099;27;19964;-70
2022/03/06 12:15:43;;;;;;;;;;;3.90;99.90;;;;;;5158510;27;20091;-70
2022/03/06 12:18:16;;;;;;;;;;;3.90;99.90;;;;;;5158610;27;19938;-70
2022/03/06 12:20:44;;;;;;;;;;;3.90;99.90;;;;;;5155706;27;19919;-70
2022/03/06 12:23:20;;;;;;;;;;;3.80;99.90;;;;;;5155151;27;19927;-70
2022/03/06 12:25:51;;;;;;;;;;;3.80;99.90;;;;;;5156348;27;19920;-68
2022/03/06 12:28:20;;;;;;;;;;;3.80;99.90;;;;;;5155986;27;19920;-69
2022/03/06 12:30:47;;;;;;;;;;;3.70;99.90;;;;;;5152307;27;19945;-71
2022/03/06 12:33:30;;;;;;;;;;;3.80;99.90;;;;;;5151005;27;19925;-70
2022/03/06 12:36:13;;;;;;;;;;;3.70;99.90;;;;;;5155360;27;19919;-70
2022/03/06 12:38:40;;;;;;;;;;;3.80;99.90;;;;;;5150635;27;19920;-70
2022/03/06 12:41:07;;;;;;;;;;;3.80;99.90;;;;;;5158528;27;19926;-70
2022/03/06 12:43:38;;;;;;;;;;;3.70;99.90;;;;;;5155458;27;19920;-70
2022/03/06 12:46:06;;;;;;;;;;;3.60;99.90;;;;;;5148049;27;20092;-72
2022/03/06 12:48:33;;;;;;;;;;;3.60;99.90;;;;;;5154972;27;19919;-73
2022/03/06 12:50:59;;;;;;;;;;;3.70;99.90;;;;;;5159913;27;19942;-69
2022/03/06 12:53:26;;;;;;;;;;;3.70;99.90;;;;;;5147562;27;19919;-69
2022/03/06 12:55:59;;;;;;;;;;;3.80;99.90;;;;;;5161170;27;19925;-69
2022/03/06 12:58:38;;;;;;;;;;;3.80;99.90;;;;;;5158432;27;19979;-69
2022/03/06 13:01:09;;;;;;;;;;;3.80;99.90;;;;;;5154752;27;19923;-69
2022/03/06 13:03:36;;;;;;;;;;;3.80;99.90;;;;;;5154016;27;20119;-69
2022/03/06 13:06:12;;;;;;;;;;;3.80;99.90;;;;;;5152186;27;19964;-70
2022/03/06 13:08:43;;;;;;;;;;;3.80;99.90;;;;;;5157672;27;19958;-69
2022/03/06 13:11:09;;;;;;;;;;;3.70;99.90;;;;;;5154441;27;19934;-69
2022/03/06 13:13:39;;;;;;;;;;;3.80;99.90;;;;;;5156242;27;19964;-69
2022/03/06 13:16:06;;;;;;;;;;;3.80;99.90;;;;;;5157788;27;19919;-70
2022/03/06 13:18:33;;;;;;;;;;;3.80;99.70;;;;;;5152721;27;19919;-69
2022/03/06 13:21:00;;;;;;;;;;;3.80;99.70;;;;;;5153939;27;19986;-70
2022/03/06 13:23:26;;;;;;;;;;;3.80;99.90;;;;;;5161635;27;20203;-70
2022/03/06 13:25:53;;;;;;;;;;;3.90;99.90;;;;;;5149624;27;19925;-70
2022/03/06 13:28:20;;;;;;;;;;;3.80;99.40;;;;;;5167141;27;19982;-70
2022/03/06 13:30:48;;;;;;;;;;;3.80;99.30;;;;;;5163603;27;19919;-70
2022/03/06 13:33:19;;;;;;;;;;;3.60;99.80;;;;;;5166658;27;20099;-70
2022/03/06 13:35:45;;;;;;;;;;;3.60;99.90;;;;;;5146339;27;20144;-70
2022/03/06 13:38:13;;;;;;;;;;;3.50;99.50;;;;;;5146545;27;19919;-70
2022/03/06 13:40:40;;;;;;;;;;;3.40;99.50;;;;;;5159504;27;19930;-70
2022/03/06 13:43:07;;;;;;;;;;;3.40;99.80;;;;;;5159800;27;20114;-71
2022/03/06 13:45:34;;;;;;;;;;;3.40;99.80;;;;;;5157216;27;20125;-71
2022/03/06 13:48:04;;;;;;;;;;;3.40;99.90;;;;;;5166633;27;19919;-70
2022/03/06 13:50:35;;;;;;;;;;;3.40;99.90;;;;;;5165604;27;19925;-70
2022/03/06 13:53:02;;;;;;;;;;;3.60;99.90;;;;;;5166667;27;19926;-70
2022/03/06 13:55:28;;;;;;;;;;;3.50;99.70;;;;;;5165930;27;19931;-70
2022/03/06 13:57:59;;;;;;;;;;;3.50;99.80;;;;;;5156072;27;19919;-70
2022/03/06 14:00:26;;;;;;;;;;;3.60;99.90;;;;;;5150556;27;19941;-70
2022/03/06 14:03:02;;;;;;;;;;;3.60;99.90;;;;;;5166367;27;19934;-68
2022/03/06 14:05:29;;;;;;;;;;;3.60;99.90;;;;;;5165126;27;19919;-68
2022/03/06 14:07:55;;;;;;;;;;;3.60;99.90;;;;;;5165976;27;19919;-68
2022/03/06 14:10:37;;;;;;;;;;;3.60;99.90;;;;;;5165187;27;19925;-68
2022/03/06 14:13:03;;;;;;;;;;;3.60;99.90;;;;;;5166689;27;19923;-68
2022/03/06 14:15:33;;;;;;;;;;;3.60;99.90;;;;;;5165975;27;19942;-66
2022/03/06 14:18:01;;;;;;;;;;;3.60;99.90;;;;;;5166778;27;19919;-68
2022/03/06 14:20:44;;;;;;;;;;;3.60;99.90;;;;;;5161891;27;19925;-69
2022/03/06 14:23:10;;;;;;;;;;;3.60;99.90;;;;;;5161425;27;19978;-69
2022/03/06 14:25:37;;;;;;;;;;;3.50;99.90;;;;;;5151017;27;19934;-69
2022/03/06 14:28:04;;;;;;;;;;;3.50;99.90;;;;;;5144616;27;19926;-69
2022/03/06 14:30:30;;;;;;;;;;;3.50;99.90;;;;;;5145414;27;19956;-69
2022/03/06 14:32:57;;;;;;;;;;;3.50;99.90;;;;;;5144986;27;19943;-69
2022/03/06 14:35:25;;;;;;;;;;;3.40;99.90;;;;;;5161554;27;19925;-69